Strona główna
METAR-TAF:

METAR-TAF

Lotnisko :

Campbeltown, Szkocja

Szerokość geograficzna: 55-26-14N, Długość geograficzna: 005-41-11W, wysokość: 13 m

Aktualna obserwacja pogody

Raport powstał 21 godziny i 18 minut temu, godzina 08:50 UTC
Wiatr 21 kt od zachodnio-południowy zachód
Temperatura 10°C
Wilgotność 71%
Ciśnienie 1006 hPa
Widzialność 10 km lub więcej
Mało chmury na wysokości 4100 ft

METAR: EGEC 060850Z 24021KT 9999 FEW041 10/05 Q1006

czas: 07:08 (06:08 UTC)

Prognoza

Raport powstał 19 godziny i 1 minut temu, godzina 11:07 UTC
Prognoza ważna od 06 godzina 12 UTC do 06 godzina 17 UTC
Wiatr 15 kt od południowy zachód
Widzialność 10 km lub więcej
Rozproszone chmury na wysokości 3000 ft
Prawdopodobieństwo 40% :
Przejściowo
od 06 godzina 12 UTC do 06 godzina 17 UTC
Wiatr 18 kt od zachodnio-południowy zachód w porywach dochodzący do 28 kt
Widzialność: 6000 m
przelotny opad deszczu

TAF: EGEC 061107Z 0612/0617 23015KT 9999 SCT030 PROB40 TEMPO 0612/0617 25018G28KT 6000 SHRA

Obserwacja i prognoza pogody dla ponad 4000 lotnisk (raport METAR i TAF).

Dostępne stacje oznaczono żółtymi i czerwonymi punktami na mapie.

Najedź kursorem aby zobaczyć nazwę stacji.

Kliknij aby zobaczyć obserwacje i prognozy pogody.

Aby zmienić mapę: kliknij na zielony przycisk z czarnym krzyżykiem, aby powiększyć; na zielony przycisk z myślnikiem, aby pomniejszyć; na zielone strzałki, aby przejść do map sąsiednich.


METAR-TAF: